Time;durP1;ratioP1;P1;durP2;ratioP2;P2;SDS_P1;SDS_P2;PMS_P1;PMS_P2;Temp;Humidity;BMP_temperature;BMP_pressure;BME280_temperature;BME280_humidity;BME280_pressure;Samples;Min_cycle;Max_cycle;Signal;HPM_P1;HPM_P2
2022/08/18 00:01:15;;;;;;;35.45;17.75;;;;;;;;;;5041829;28;20436;-84
2022/08/18 00:03:41;;;;;;;35.00;17.88;;;;;;;;;;5036879;28;20083;-84
2022/08/18 00:06:06;;;;;;;40.50;18.30;;;;;;;;;;5038662;28;20041;-84
2022/08/18 00:08:32;;;;;;;32.08;17.20;;;;;;;;;;5047009;28;20086;-84
2022/08/18 00:10:57;;;;;;;34.35;16.60;;;;;;;;;;5046364;28;20076;-84
2022/08/18 00:13:23;;;;;;;39.70;17.95;;;;;;;;;;5064657;28;20418;-84
2022/08/18 00:15:49;;;;;;;32.80;17.13;;;;;;;;;;5033688;28;20534;-84
2022/08/18 00:18:14;;;;;;;36.38;16.65;;;;;;;;;;5028918;28;20034;-84
2022/08/18 00:20:40;;;;;;;32.90;16.92;;;;;;;;;;5030082;28;20032;-84
2022/08/18 00:23:05;;;;;;;33.80;15.65;;;;;;;;;;5050841;28;20037;-84
2022/08/18 00:25:31;;;;;;;35.97;17.58;;;;;;;;;;5042946;28;20464;-84
2022/08/18 00:27:56;;;;;;;34.05;17.60;;;;;;;;;;5046925;28;20040;-85
2022/08/18 00:30:22;;;;;;;41.83;19.10;;;;;;;;;;5048809;28;20672;-84
2022/08/18 00:32:58;;;;;;;40.88;20.17;;;;;;;;;;5050329;28;20041;-84
2022/08/18 00:35:29;;;;;;;47.72;20.10;;;;;;;;;;5052956;28;20051;-85
2022/08/18 00:37:57;;;;;;;47.25;21.80;;;;;;;;;;5048614;28;20025;-84
2022/08/18 00:40:28;;;;;;;41.35;18.55;;;;;;;;;;5048813;28;20013;-84
2022/08/18 00:43:01;;;;;;;52.83;20.88;;;;;;;;;;5047990;28;20564;-84
2022/08/18 00:45:36;;;;;;;54.33;20.02;;;;;;;;;;5050111;28;20033;-84
2022/08/18 00:48:04;;;;;;;44.50;19.50;;;;;;;;;;5049526;28;20029;-83
2022/08/18 00:50:45;;;;;;;44.97;18.70;;;;;;;;;;5050006;28;20055;-84
2022/08/18 00:53:28;;;;;;;42.75;19.40;;;;;;;;;;5046992;28;20404;-84
2022/08/18 00:55:57;;;;;;;73.43;18.90;;;;;;;;;;5055785;28;20029;-84
2022/08/18 00:58:53;;;;;;;69.05;22.40;;;;;;;;;;5070205;28;20107;-84
2022/08/18 01:01:22;;;;;;;81.90;21.17;;;;;;;;;;5041532;28;20119;-84
2022/08/18 01:03:52;;;;;;;123.75;22.30;;;;;;;;;;5054633;28;20128;-84
2022/08/18 01:06:34;;;;;;;95.72;21.67;;;;;;;;;;5065338;28;20522;-84
2022/08/18 01:09:01;;;;;;;80.50;20.42;;;;;;;;;;5048168;28;20072;-84
2022/08/18 01:11:27;;;;;;;77.90;20.23;;;;;;;;;;5048410;28;20540;-84
2022/08/18 01:13:52;;;;;;;66.28;20.83;;;;;;;;;;5049212;28;20025;-84
2022/08/18 01:21:52;;;;;;;60.40;22.00;;;;;;;;;;5042816;28;20230;-83
2022/08/18 01:25:58;;;;;;;52.78;22.63;;;;;;;;;;5031306;28;20033;-84
2022/08/18 01:27:16;;;;;;;97.70;23.17;;;;;;;;;;5039696;28;20116;-84
2022/08/18 01:29:46;;;;;;;83.43;22.25;;;;;;;;;;5049334;28;20048;-84
2022/08/18 01:32:18;;;;;;;82.82;22.05;;;;;;;;;;5049240;28;20510;-84
2022/08/18 01:34:46;;;;;;;72.18;22.95;;;;;;;;;;5064558;28;20053;-84
2022/08/18 01:37:14;;;;;;;86.22;22.90;;;;;;;;;;5047044;28;20016;-84
2022/08/18 01:39:39;;;;;;;64.93;22.15;;;;;;;;;;5046410;28;20033;-84
2022/08/18 01:42:05;;;;;;;55.85;22.30;;;;;;;;;;5047579;28;20137;-84
2022/08/18 01:44:32;;;;;;;68.30;24.17;;;;;;;;;;5047013;28;20720;-84
2022/08/18 01:46:58;;;;;;;89.85;23.95;;;;;;;;;;5045415;28;20025;-83
2022/08/18 01:49:23;;;;;;;63.53;22.92;;;;;;;;;;5049185;28;20021;-84
2022/08/18 01:51:48;;;;;;;83.43;23.25;;;;;;;;;;5048920;28;20033;-84
2022/08/18 01:54:14;;;;;;;71.88;23.33;;;;;;;;;;5048664;28;20040;-83
2022/08/18 01:56:41;;;;;;;109.07;23.73;;;;;;;;;;5061403;28;20086;-84
2022/08/18 01:59:12;;;;;;;119.90;22.05;;;;;;;;;;5064221;28;20108;-84
2022/08/18 02:01:38;;;;;;;105.40;22.35;;;;;;;;;;5045700;28;20025;-83
2022/08/18 02:04:05;;;;;;;143.02;21.60;;;;;;;;;;5048639;28;20052;-84
2022/08/18 02:06:32;;;;;;;79.78;22.83;;;;;;;;;;5048790;28;20448;-83
2022/08/18 02:08:57;;;;;;;88.63;22.23;;;;;;;;;;5048742;28;20537;-84
2022/08/18 02:11:23;;;;;;;87.13;21.38;;;;;;;;;;5048410;28;20095;-83
2022/08/18 02:13:48;;;;;;;134.32;21.90;;;;;;;;;;5048591;28;20052;-83
2022/08/18 02:16:15;;;;;;;89.65;21.25;;;;;;;;;;5048682;28;20036;-84
2022/08/18 02:18:41;;;;;;;113.43;21.40;;;;;;;;;;5046532;28;20037;-84
2022/08/18 02:21:12;;;;;;;62.40;21.98;;;;;;;;;;5048246;28;20033;-83
2022/08/18 02:23:39;;;;;;;92.88;22.40;;;;;;;;;;5048611;28;20116;-84
2022/08/18 02:26:11;;;;;;;121.75;21.35;;;;;;;;;;5047238;28;20083;-83
2022/08/18 02:28:37;;;;;;;73.43;20.73;;;;;;;;;;5048285;28;20465;-84
2022/08/18 02:31:05;;;;;;;65.13;19.05;;;;;;;;;;5047878;28;20044;-83
2022/08/18 02:33:30;;;;;;;71.10;18.35;;;;;;;;;;5045664;28;20056;-84
2022/08/18 02:35:56;;;;;;;54.60;20.13;;;;;;;;;;5041740;28;20044;-83
2022/08/18 02:38:21;;;;;;;59.08;20.02;;;;;;;;;;5046895;28;20120;-84
2022/08/18 02:40:56;;;;;;;66.25;19.73;;;;;;;;;;5048068;28;20028;-83
2022/08/18 02:43:22;;;;;;;78.20;20.17;;;;;;;;;;5047408;28;20414;-84
2022/08/18 02:45:47;;;;;;;61.78;20.60;;;;;;;;;;5048049;28;20045;-84
2022/08/18 02:48:12;;;;;;;68.07;20.42;;;;;;;;;;5047785;28;20055;-84
2022/08/18 02:50:47;;;;;;;65.60;20.15;;;;;;;;;;5046728;28;20031;-82
2022/08/18 02:53:23;;;;;;;52.00;19.80;;;;;;;;;;5039279;28;20063;-83
2022/08/18 02:55:49;;;;;;;65.47;20.73;;;;;;;;;;5053174;28;20043;-83
2022/08/18 02:58:14;;;;;;;70.32;19.83;;;;;;;;;;5047440;28;20021;-84
2022/08/18 03:00:41;;;;;;;59.88;20.67;;;;;;;;;;5035240;28;20431;-84
2022/08/18 03:03:07;;;;;;;73.93;20.38;;;;;;;;;;5048095;28;20033;-83
2022/08/18 03:05:33;;;;;;;67.50;21.70;;;;;;;;;;5047202;28;20071;-83
2022/08/18 03:07:59;;;;;;;73.07;21.85;;;;;;;;;;5047000;28;20037;-83
2022/08/18 03:10:24;;;;;;;87.20;21.75;;;;;;;;;;5033071;28;20554;-83
2022/08/18 03:12:50;;;;;;;70.97;19.85;;;;;;;;;;5028340;28;20523;-84
2022/08/18 03:15:15;;;;;;;67.72;22.33;;;;;;;;;;5042403;28;20460;-84
2022/08/18 03:17:40;;;;;;;59.10;22.17;;;;;;;;;;5047858;28;20045;-84
2022/08/18 03:20:06;;;;;;;63.10;20.55;;;;;;;;;;5047748;28;20061;-84
2022/08/18 03:22:32;;;;;;;68.43;22.40;;;;;;;;;;5048634;28;20027;-84
2022/08/18 03:24:58;;;;;;;78.45;22.65;;;;;;;;;;5046870;28;20116;-84
2022/08/18 03:27:24;;;;;;;62.05;20.05;;;;;;;;;;5040878;28;20149;-84
2022/08/18 03:29:50;;;;;;;64.68;20.60;;;;;;;;;;5046170;28;20352;-84
2022/08/18 03:32:16;;;;;;;64.93;21.80;;;;;;;;;;5047994;28;20037;-84
2022/08/18 03:34:42;;;;;;;60.67;21.13;;;;;;;;;;5051416;28;20202;-84
2022/08/18 03:37:08;;;;;;;57.92;20.75;;;;;;;;;;5069901;28;20165;-84
2022/08/18 03:39:33;;;;;;;68.95;21.75;;;;;;;;;;5051352;28;20526;-85
2022/08/18 03:41:59;;;;;;;55.45;22.17;;;;;;;;;;5071202;28;20044;-84
2022/08/18 03:44:26;;;;;;;60.72;20.95;;;;;;;;;;5070539;28;20088;-84
2022/08/18 03:46:52;;;;;;;55.83;20.30;;;;;;;;;;5055171;28;20025;-84
2022/08/18 03:49:19;;;;;;;60.10;22.05;;;;;;;;;;5046130;28;20025;-84
2022/08/18 03:51:45;;;;;;;52.50;21.70;;;;;;;;;;5049686;28;20041;-84
2022/08/18 03:54:12;;;;;;;55.78;20.95;;;;;;;;;;5050963;28;20033;-84
2022/08/18 03:56:38;;;;;;;60.90;21.67;;;;;;;;;;5051726;28;20459;-83
2022/08/18 03:59:11;;;;;;;68.90;22.25;;;;;;;;;;5033454;28;20048;-83
2022/08/18 04:01:39;;;;;;;61.67;22.90;;;;;;;;;;5044986;28;20609;-83
2022/08/18 04:04:08;;;;;;;67.82;22.48;;;;;;;;;;5043620;28;20048;-83
2022/08/18 04:06:38;;;;;;;51.78;20.73;;;;;;;;;;5040060;28;20128;-83
2022/08/18 04:09:06;;;;;;;62.42;21.90;;;;;;;;;;5051035;28;20701;-83
2022/08/18 04:11:34;;;;;;;59.05;21.45;;;;;;;;;;5051242;28;20098;-83
2022/08/18 04:14:00;;;;;;;69.35;22.50;;;;;;;;;;5050965;28;20028;-83
2022/08/18 04:16:27;;;;;;;61.33;22.95;;;;;;;;;;5050874;28;20057;-83
2022/08/18 04:18:54;;;;;;;72.78;23.88;;;;;;;;;;5049412;28;20055;-83
2022/08/18 04:21:20;;;;;;;61.65;21.48;;;;;;;;;;5046014;28;20526;-83
2022/08/18 04:23:45;;;;;;;69.65;22.88;;;;;;;;;;5051056;28;20029;-83
2022/08/18 04:26:11;;;;;;;59.58;22.88;;;;;;;;;;5050115;28;20036;-83
2022/08/18 04:28:37;;;;;;;65.18;22.50;;;;;;;;;;5049543;28;20028;-83
2022/08/18 04:31:08;;;;;;;67.38;22.77;;;;;;;;;;5050476;28;20464;-83
2022/08/18 04:33:34;;;;;;;67.40;21.83;;;;;;;;;;5048308;28;20040;-83
2022/08/18 04:36:07;;;;;;;63.80;24.10;;;;;;;;;;5056817;28;20049;-83
2022/08/18 04:38:33;;;;;;;65.47;22.83;;;;;;;;;;5048791;28;20615;-83
2022/08/18 04:40:58;;;;;;;71.18;22.85;;;;;;;;;;5050339;28;20025;-83
2022/08/18 04:43:24;;;;;;;67.60;24.33;;;;;;;;;;5050429;28;20417;-83
2022/08/18 04:45:50;;;;;;;75.85;23.90;;;;;;;;;;5050518;28;20063;-83
2022/08/18 04:48:15;;;;;;;66.82;22.63;;;;;;;;;;5048718;28;20045;-83
2022/08/18 04:50:41;;;;;;;78.82;25.17;;;;;;;;;;5047453;28;20035;-83
2022/08/18 04:55:54;;;;;;;66.15;21.42;;;;;;;;;;5055863;28;20086;-83
2022/08/18 04:58:23;;;;;;;66.88;24.13;;;;;;;;;;5055803;28;20493;-83
2022/08/18 05:00:59;;;;;;;57.72;22.63;;;;;;;;;;5048443;28;20041;-83
2022/08/18 05:03:25;;;;;;;70.28;23.63;;;;;;;;;;5048963;28;20104;-83
2022/08/18 05:05:53;;;;;;;75.78;24.48;;;;;;;;;;5044569;28;20141;-83
2022/08/18 05:08:21;;;;;;;66.13;24.15;;;;;;;;;;5049019;28;20052;-83
2022/08/18 05:10:47;;;;;;;76.03;25.98;;;;;;;;;;5050126;28;20028;-83
2022/08/18 05:13:17;;;;;;;73.50;24.33;;;;;;;;;;5050239;28;20029;-83
2022/08/18 05:15:42;;;;;;;67.55;22.83;;;;;;;;;;5047819;28;20037;-83
2022/08/18 05:18:09;;;;;;;87.30;25.23;;;;;;;;;;5049894;28;20056;-83
2022/08/18 05:20:36;;;;;;;75.20;24.67;;;;;;;;;;5048188;28;20541;-83
2022/08/18 05:23:02;;;;;;;78.88;24.48;;;;;;;;;;5042596;28;20044;-83
2022/08/18 05:25:28;;;;;;;97.13;25.92;;;;;;;;;;5048911;28;20013;-83
2022/08/18 05:27:54;;;;;;;80.95;23.55;;;;;;;;;;5047969;28;20033;-84
2022/08/18 05:30:20;;;;;;;81.30;23.63;;;;;;;;;;5047915;28;20037;-84
2022/08/18 05:32:46;;;;;;;78.55;23.92;;;;;;;;;;5048362;28;20344;-84
2022/08/18 05:35:17;;;;;;;71.35;22.63;;;;;;;;;;5051535;28;20037;-84
2022/08/18 05:37:42;;;;;;;80.82;22.50;;;;;;;;;;5047994;28;20056;-84
2022/08/18 05:40:07;;;;;;;82.10;23.25;;;;;;;;;;5047738;28;20560;-84
2022/08/18 05:42:38;;;;;;;88.72;25.25;;;;;;;;;;5045251;28;20535;-84
2022/08/18 05:45:11;;;;;;;81.85;23.13;;;;;;;;;;5049892;28;20048;-84
2022/08/18 05:47:37;;;;;;;77.07;23.85;;;;;;;;;;5043550;28;20036;-84
2022/08/18 05:50:07;;;;;;;87.85;24.15;;;;;;;;;;5040437;28;20033;-84
2022/08/18 05:53:02;;;;;;;83.82;23.33;;;;;;;;;;5049622;28;20037;-84
2022/08/18 05:58:30;;;;;;;72.35;21.80;;;;;;;;;;5052538;28;20481;-84
2022/08/18 06:00:57;;;;;;;;;;;;;;;;;;5042446;28;20502;-84
2022/08/18 06:03:31;;;;;;;74.10;21.65;;;;;;;;;;5049502;28;19963;-84
2022/08/18 06:06:03;;;;;;;93.05;24.38;;;;;;;;;;5057380;28;20498;-84
2022/08/18 06:08:37;;;;;;;82.43;22.80;;;;;;;;;;5059102;28;20129;-84
2022/08/18 06:11:03;;;;;;;82.28;23.77;;;;;;;;;;5035279;28;20128;-84
2022/08/18 06:13:31;;;;;;;77.22;23.10;;;;;;;;;;5049015;28;20100;-84
2022/08/18 06:16:02;;;;;;;82.57;23.02;;;;;;;;;;5048462;28;20086;-84
2022/08/18 06:18:52;;;;;;;78.75;23.02;;;;;;;;;;5045588;28;20037;-84
2022/08/18 06:21:24;;;;;;;86.57;23.95;;;;;;;;;;5045443;28;20047;-84
2022/08/18 06:24:32;;;;;;;77.28;23.60;;;;;;;;;;5040155;28;20051;-85
2022/08/18 06:27:08;;;;;;;75.10;22.00;;;;;;;;;;4967796;28;20046;-86
2022/08/18 06:29:55;;;;;;;73.80;22.55;;;;;;;;;;4983976;28;20092;-85
2022/08/18 06:33:03;;;;;;;79.38;22.52;;;;;;;;;;5023566;28;20029;-84
2022/08/18 06:35:46;;;;;;;75.03;23.90;;;;;;;;;;5041741;28;20037;-85
2022/08/18 06:41:07;;;;;;;77.20;23.67;;;;;;;;;;5039225;28;20040;-84
2022/08/18 06:43:33;;;;;;;;;;;;;;;;;;5046414;28;20045;-84
2022/08/18 06:46:01;;;;;;;81.63;24.42;;;;;;;;;;5046280;28;19912;-85
2022/08/18 06:48:48;;;;;;;84.93;23.85;;;;;;;;;;5046189;28;20037;-85
2022/08/18 06:51:20;;;;;;;79.15;23.83;;;;;;;;;;5047038;28;20033;-88
2022/08/18 06:54:03;;;;;;;79.05;24.80;;;;;;;;;;5043608;28;20044;-84
2022/08/18 06:56:36;;;;;;;;;;;;;;;;;;5037567;28;20064;-84
2022/08/18 06:59:26;;;;;;;80.05;23.90;;;;;;;;;;5047077;28;19962;-84
2022/08/18 07:02:21;;;;;;;73.60;23.33;;;;;;;;;;5044979;28;20433;-84
2022/08/18 07:05:04;;;;;;;71.00;23.70;;;;;;;;;;5013244;28;20048;-84
2022/08/18 07:07:34;;;;;;;74.60;23.98;;;;;;;;;;5044265;28;20016;-84
2022/08/18 07:10:00;;;;;;;73.32;23.35;;;;;;;;;;5042406;28;20579;-85
2022/08/18 07:12:28;;;;;;;72.22;24.00;;;;;;;;;;5039304;28;20506;-86
2022/08/18 07:15:01;;;;;;;75.47;24.60;;;;;;;;;;5041998;28;20547;-86
2022/08/18 07:17:38;;;;;;;78.57;23.25;;;;;;;;;;5036886;28;20518;-86
2022/08/18 07:20:18;;;;;;;72.57;23.10;;;;;;;;;;5040802;28;20063;-84
2022/08/18 07:22:52;;;;;;;72.28;23.58;;;;;;;;;;5047440;28;20031;-83
2022/08/18 07:25:30;;;;;;;76.40;23.65;;;;;;;;;;5048807;28;20032;-83
2022/08/18 07:28:00;;;;;;;78.10;25.90;;;;;;;;;;5063556;28;20033;-84
2022/08/18 07:30:36;;;;;;;72.80;24.33;;;;;;;;;;5041861;28;20036;-85
2022/08/18 07:33:02;;;;;;;76.80;23.95;;;;;;;;;;5032206;28;20569;-84
2022/08/18 07:35:39;;;;;;;72.88;23.85;;;;;;;;;;5047357;28;20037;-82
2022/08/18 07:38:16;;;;;;;66.28;23.90;;;;;;;;;;5039640;28;20041;-84
2022/08/18 07:41:19;;;;;;;68.75;23.60;;;;;;;;;;5044280;28;20052;-84
2022/08/18 07:43:48;;;;;;;72.57;23.77;;;;;;;;;;5042675;28;20067;-85
2022/08/18 07:46:25;;;;;;;69.53;24.92;;;;;;;;;;5049794;28;20124;-85
2022/08/18 07:48:51;;;;;;;68.38;23.88;;;;;;;;;;5052729;28;20032;-86
2022/08/18 07:51:24;;;;;;;67.75;23.67;;;;;;;;;;5048816;28;20028;-85
2022/08/18 07:53:53;;;;;;;72.80;25.10;;;;;;;;;;5055508;28;20052;-85
2022/08/18 07:56:54;;;;;;;61.67;23.00;;;;;;;;;;5040618;28;20194;-83
2022/08/18 07:59:32;;;;;;;62.08;24.33;;;;;;;;;;5057439;28;20056;-83
2022/08/18 08:02:19;;;;;;;61.83;22.60;;;;;;;;;;5066718;28;20049;-82
2022/08/18 08:04:50;;;;;;;62.53;23.40;;;;;;;;;;5069436;28;20118;-82
2022/08/18 08:07:30;;;;;;;59.28;24.10;;;;;;;;;;5051810;28;20041;-82
2022/08/18 08:10:29;;;;;;;60.63;22.90;;;;;;;;;;5066555;28;20040;-83
2022/08/18 08:13:19;;;;;;;62.53;22.13;;;;;;;;;;5045165;28;20403;-82
2022/08/18 08:15:58;;;;;;;54.17;22.55;;;;;;;;;;5045683;28;20029;-83
2022/08/18 08:18:47;;;;;;;51.13;20.02;;;;;;;;;;5045877;28;20047;-82
2022/08/18 08:21:18;;;;;;;45.40;21.08;;;;;;;;;;5042501;28;20057;-83
2022/08/18 08:23:53;;;;;;;56.55;22.38;;;;;;;;;;5046656;28;20044;-82
2022/08/18 08:26:55;;;;;;;51.55;22.58;;;;;;;;;;5049061;28;20036;-88
2022/08/18 08:29:33;;;;;;;45.33;20.05;;;;;;;;;;5054960;28;20095;-87
2022/08/18 08:32:14;;;;;;;46.72;19.63;;;;;;;;;;5052221;28;20099;-87
2022/08/18 08:34:56;;;;;;;50.00;20.08;;;;;;;;;;5046977;28;20461;-84
2022/08/18 08:37:45;;;;;;;52.40;22.95;;;;;;;;;;5055587;28;20044;-84
2022/08/18 08:40:18;;;;;;;50.25;21.40;;;;;;;;;;5028921;28;20028;-85
2022/08/18 08:42:51;;;;;;;55.08;22.90;;;;;;;;;;5042414;28;20033;-85
2022/08/18 08:45:33;;;;;;;50.05;21.77;;;;;;;;;;5061497;28;20036;-86
2022/08/18 08:48:01;;;;;;;50.72;21.50;;;;;;;;;;5041422;28;20049;-85
2022/08/18 08:50:31;;;;;;;55.17;21.92;;;;;;;;;;5048713;28;20420;-82
2022/08/18 08:53:19;;;;;;;55.03;22.65;;;;;;;;;;5049895;28;20536;-82
2022/08/18 08:55:50;;;;;;;48.38;20.60;;;;;;;;;;5043270;28;20132;-82
2022/08/18 08:58:18;;;;;;;52.92;23.02;;;;;;;;;;5051115;28;20040;-82
2022/08/18 09:00:46;;;;;;;42.40;19.98;;;;;;;;;;5047974;28;20079;-82
2022/08/18 09:03:37;;;;;;;45.78;20.88;;;;;;;;;;5059430;28;20017;-82
2022/08/18 09:06:13;;;;;;;49.58;20.23;;;;;;;;;;5049122;28;20041;-81
2022/08/18 09:08:49;;;;;;;46.25;19.15;;;;;;;;;;5055509;28;20603;-82
2022/08/18 09:11:42;;;;;;;44.30;20.25;;;;;;;;;;5051802;28;20083;-82
2022/08/18 09:14:28;;;;;;;46.93;21.07;;;;;;;;;;5054905;28;20041;-82
2022/08/18 09:17:28;;;;;;;38.55;18.75;;;;;;;;;;5050093;28;20648;-82
2022/08/18 09:20:08;;;;;;;42.00;18.92;;;;;;;;;;5046545;28;20068;-81
2022/08/18 09:22:51;;;;;;;49.30;20.20;;;;;;;;;;5052156;28;20128;-81
2022/08/18 09:25:36;;;;;;;44.97;19.97;;;;;;;;;;5040328;28;20043;-82
2022/08/18 09:28:11;;;;;;;50.00;20.40;;;;;;;;;;5053693;28;20594;-82
2022/08/18 09:30:51;;;;;;;43.47;20.45;;;;;;;;;;5051890;28;20033;-83
2022/08/18 09:33:45;;;;;;;44.08;19.70;;;;;;;;;;5032766;28;20564;-83
2022/08/18 09:36:28;;;;;;;48.78;20.40;;;;;;;;;;5039114;28;20049;-82
2022/08/18 09:42:10;;;;;;;36.65;17.13;;;;;;;;;;5056899;28;19998;-82
2022/08/18 09:44:45;;;;;;;38.72;17.92;;;;;;;;;;5045166;28;20051;-83
2022/08/18 09:47:32;;;;;;;38.95;18.42;;;;;;;;;;5053834;28;20044;-83
2022/08/18 09:50:03;;;;;;;43.42;19.42;;;;;;;;;;5014797;28;20136;-82
2022/08/18 09:52:31;;;;;;;38.10;18.35;;;;;;;;;;5048760;28;20151;-81
2022/08/18 09:54:57;;;;;;;43.28;20.95;;;;;;;;;;5055596;28;20040;-82
2022/08/18 09:57:31;;;;;;;43.58;20.13;;;;;;;;;;5047727;28;20033;-84
2022/08/18 10:00:18;;;;;;;42.10;18.73;;;;;;;;;;5044896;28;20072;-82
2022/08/18 10:02:46;;;;;;;36.55;18.40;;;;;;;;;;5044385;28;20032;-82
2022/08/18 10:05:15;;;;;;;39.25;17.63;;;;;;;;;;5045415;28;20069;-83
2022/08/18 10:07:53;;;;;;;36.15;17.30;;;;;;;;;;5043446;28;20609;-82
2022/08/18 10:10:41;;;;;;;34.72;17.33;;;;;;;;;;5045688;28;20083;-81
2022/08/18 10:13:39;;;;;;;31.23;16.08;;;;;;;;;;5053353;28;20041;-82
2022/08/18 10:16:14;;;;;;;31.00;15.63;;;;;;;;;;5046013;28;20037;-83
2022/08/18 10:19:01;;;;;;;31.70;15.73;;;;;;;;;;5038512;28;20029;-82
2022/08/18 10:21:48;;;;;;;28.15;13.57;;;;;;;;;;5040469;28;20029;-81
2022/08/18 10:24:18;;;;;;;28.20;14.10;;;;;;;;;;5045206;28;20045;-81
2022/08/18 10:26:43;;;;;;;27.02;14.00;;;;;;;;;;5039781;28;20032;-82
2022/08/18 10:29:10;;;;;;;31.05;14.43;;;;;;;;;;5040593;28;20037;-82
2022/08/18 10:32:00;;;;;;;25.10;14.43;;;;;;;;;;5043094;28;20091;-82
2022/08/18 10:34:40;;;;;;;27.85;15.35;;;;;;;;;;5049270;28;20533;-82
2022/08/18 10:37:38;;;;;;;21.65;12.02;;;;;;;;;;5041813;28;20036;-83
2022/08/18 10:40:12;;;;;;;27.15;13.85;;;;;;;;;;5040371;28;20068;-83
2022/08/18 10:42:40;;;;;;;;;;;;;;;;;;5049095;28;20400;-82
2022/08/18 10:45:05;;;;;;;23.25;12.35;;;;;;;;;;5042652;28;20405;-83
2022/08/18 10:47:31;;;;;;;22.58;12.35;;;;;;;;;;5041262;28;20032;-82
2022/08/18 10:49:59;;;;;;;24.63;12.50;;;;;;;;;;5042363;28;20409;-82
2022/08/18 10:52:50;;;;;;;26.42;11.88;;;;;;;;;;5044386;28;21109;-82
2022/08/18 10:55:35;;;;;;;28.58;12.77;;;;;;;;;;5045561;28;20044;-82
2022/08/18 10:58:17;;;;;;;25.33;12.65;;;;;;;;;;5043681;28;20047;-83
2022/08/18 11:01:10;;;;;;;27.77;14.48;;;;;;;;;;5035133;28;20547;-83
2022/08/18 11:03:54;;;;;;;24.70;13.00;;;;;;;;;;5050404;28;20025;-83
2022/08/18 11:06:24;;;;;;;29.58;14.63;;;;;;;;;;5037164;28;20037;-81
2022/08/18 11:08:53;;;;;;;25.40;12.38;;;;;;;;;;5041324;28;20056;-84
2022/08/18 11:11:22;;;;;;;22.90;12.60;;;;;;;;;;5044516;28;20060;-83
2022/08/18 11:14:03;;;;;;;21.27;11.45;;;;;;;;;;5041987;28;20048;-83
2022/08/18 11:16:31;;;;;;;20.92;11.48;;;;;;;;;;5037482;28;20064;-82
2022/08/18 11:19:10;;;;;;;21.15;11.25;;;;;;;;;;5042034;28;20045;-82
2022/08/18 11:21:35;;;;;;;23.42;11.88;;;;;;;;;;5031276;28;20079;-82
2022/08/18 11:24:21;;;;;;;25.02;14.85;;;;;;;;;;5048269;28;20517;-83
2022/08/18 11:26:56;;;;;;;24.92;14.02;;;;;;;;;;5050503;28;20035;-84
2022/08/18 11:29:30;;;;;;;26.88;14.95;;;;;;;;;;5057802;28;20049;-82
2022/08/18 11:32:01;;;;;;;29.63;16.58;;;;;;;;;;5041950;28;20033;-83
2022/08/18 11:34:33;;;;;;;32.90;16.17;;;;;;;;;;5052159;28;20071;-85
2022/08/18 11:37:08;;;;;;;29.07;15.50;;;;;;;;;;5051179;28;20037;-84
2022/08/18 11:39:46;;;;;;;25.83;14.73;;;;;;;;;;5043305;28;20354;-83
2022/08/18 11:42:15;;;;;;;25.63;13.80;;;;;;;;;;5048886;28;20098;-84
2022/08/18 11:44:40;;;;;;;20.05;12.43;;;;;;;;;;5058399;28;20236;-83
2022/08/18 11:47:15;;;;;;;18.67;12.00;;;;;;;;;;5030113;28;20419;-82
2022/08/18 11:49:51;;;;;;;24.55;14.55;;;;;;;;;;5040684;28;20037;-83
2022/08/18 11:52:19;;;;;;;28.75;16.27;;;;;;;;;;5049974;28;20029;-83
2022/08/18 11:55:01;;;;;;;27.88;16.90;;;;;;;;;;5054830;28;20048;-83
2022/08/18 11:57:48;;;;;;;27.15;16.05;;;;;;;;;;5035371;28;20025;-82
2022/08/18 12:00:37;;;;;;;12.45;8.32;;;;;;;;;;5047798;28;20064;-82
2022/08/18 12:03:09;;;;;;;19.20;11.82;;;;;;;;;;5054406;28;20545;-82
2022/08/18 12:05:49;;;;;;;22.63;11.65;;;;;;;;;;5045379;28;20092;-83
2022/08/18 12:08:22;;;;;;;23.40;13.95;;;;;;;;;;5051559;28;20039;-81
2022/08/18 12:11:05;;;;;;;19.88;13.68;;;;;;;;;;5066484;28;20399;-83
2022/08/18 12:13:31;;;;;;;22.23;15.13;;;;;;;;;;5060893;28;20040;-83
2022/08/18 12:16:30;;;;;;;30.00;17.45;;;;;;;;;;5054692;28;20024;-83
2022/08/18 12:18:56;;;;;;;28.52;17.90;;;;;;;;;;5048712;28;20102;-81
2022/08/18 12:21:24;;;;;;;26.55;17.38;;;;;;;;;;5047853;28;20029;-82
2022/08/18 12:23:49;;;;;;;27.38;18.02;;;;;;;;;;5050749;28;20041;-83
2022/08/18 12:26:15;;;;;;;30.88;19.10;;;;;;;;;;5039795;28;20048;-82
2022/08/18 12:28:40;;;;;;;28.70;19.35;;;;;;;;;;5046212;28;20122;-82
2022/08/18 12:31:07;;;;;;;32.80;19.90;;;;;;;;;;5047322;28;20040;-82
2022/08/18 12:33:34;;;;;;;29.63;19.73;;;;;;;;;;5049174;28;20074;-82
2022/08/18 12:36:00;;;;;;;31.25;20.65;;;;;;;;;;5046445;28;20040;-82
2022/08/18 12:38:26;;;;;;;32.67;20.38;;;;;;;;;;5055626;28;20032;-82
2022/08/18 12:40:52;;;;;;;32.60;20.48;;;;;;;;;;5047398;28;20036;-81
2022/08/18 12:43:17;;;;;;;31.60;19.48;;;;;;;;;;5045607;28;20087;-83
2022/08/18 12:45:43;;;;;;;27.13;18.00;;;;;;;;;;5045526;28;20033;-83
2022/08/18 12:48:08;;;;;;;30.05;18.88;;;;;;;;;;5045285;28;20490;-83
2022/08/18 12:50:36;;;;;;;25.35;18.05;;;;;;;;;;5047228;28;20094;-83
2022/08/18 12:53:02;;;;;;;29.30;18.63;;;;;;;;;;5037644;28;20045;-84
2022/08/18 12:55:32;;;;;;;24.92;17.73;;;;;;;;;;5048207;28;20044;-84
2022/08/18 12:57:57;;;;;;;23.80;17.70;;;;;;;;;;5068027;28;20041;-84
2022/08/18 13:00:23;;;;;;;24.38;16.30;;;;;;;;;;5052203;28;20036;-83
2022/08/18 13:02:48;;;;;;;26.17;17.23;;;;;;;;;;5045997;28;20506;-84
2022/08/18 13:05:14;;;;;;;29.35;17.80;;;;;;;;;;5067385;28;20040;-82
2022/08/18 13:07:40;;;;;;;26.88;18.48;;;;;;;;;;5058731;28;20032;-83
2022/08/18 13:10:06;;;;;;;25.58;17.23;;;;;;;;;;5052090;28;20036;-82
2022/08/18 13:12:32;;;;;;;23.60;16.63;;;;;;;;;;5045075;28;20032;-83
2022/08/18 13:14:57;;;;;;;25.83;16.77;;;;;;;;;;5050606;28;20034;-82
2022/08/18 13:17:23;;;;;;;21.88;15.38;;;;;;;;;;5054619;28;20128;-83
2022/08/18 13:19:48;;;;;;;23.98;17.20;;;;;;;;;;5056834;28;20059;-83
2022/08/18 13:22:14;;;;;;;28.00;18.38;;;;;;;;;;5047798;28;20045;-81
2022/08/18 13:24:39;;;;;;;27.48;18.38;;;;;;;;;;5035945;28;20044;-82
2022/08/18 13:27:05;;;;;;;23.83;16.25;;;;;;;;;;5056982;28;20048;-81
2022/08/18 13:29:33;;;;;;;24.33;17.05;;;;;;;;;;5054025;28;20040;-83
2022/08/18 13:32:06;;;;;;;27.25;18.15;;;;;;;;;;5060913;28;20048;-82
2022/08/18 13:34:32;;;;;;;27.75;17.92;;;;;;;;;;5045533;28;20041;-82
2022/08/18 13:36:57;;;;;;;21.33;14.98;;;;;;;;;;5044103;28;20391;-84
2022/08/18 13:39:24;;;;;;;19.75;14.45;;;;;;;;;;5041397;28;20021;-82
2022/08/18 13:41:52;;;;;;;23.45;16.63;;;;;;;;;;5037175;28;20049;-82
2022/08/18 13:44:18;;;;;;;22.67;15.30;;;;;;;;;;5040512;28;20167;-82
2022/08/18 13:46:48;;;;;;;20.50;15.25;;;;;;;;;;5042781;28;20029;-82
2022/08/18 13:49:14;;;;;;;22.10;15.00;;;;;;;;;;5033477;28;20083;-82
2022/08/18 13:51:42;;;;;;;18.92;14.30;;;;;;;;;;5059479;28;20027;-83
2022/08/18 13:54:09;;;;;;;17.38;13.45;;;;;;;;;;5044584;28;20059;-82
2022/08/18 13:56:34;;;;;;;19.15;14.25;;;;;;;;;;5041935;28;20066;-83
2022/08/18 13:59:00;;;;;;;17.52;13.45;;;;;;;;;;5033718;28;20040;-83
2022/08/18 14:01:26;;;;;;;16.65;12.85;;;;;;;;;;5042117;28;20441;-82
2022/08/18 14:03:51;;;;;;;18.67;13.70;;;;;;;;;;5044785;28;20016;-83
2022/08/18 14:06:20;;;;;;;20.42;14.65;;;;;;;;;;5047058;28;20028;-82
2022/08/18 14:08:46;;;;;;;17.65;13.77;;;;;;;;;;5054360;28;20090;-82
2022/08/18 14:11:11;;;;;;;16.48;13.13;;;;;;;;;;5046044;28;20029;-81
2022/08/18 14:13:37;;;;;;;18.38;12.40;;;;;;;;;;5054528;28;20692;-84
2022/08/18 14:16:03;;;;;;;14.80;11.68;;;;;;;;;;5042465;28;21635;-83
2022/08/18 14:18:28;;;;;;;16.17;12.80;;;;;;;;;;5048411;28;20064;-83
2022/08/18 14:29:08;;;;;;;14.85;11.63;;;;;;;;;;5043611;28;20401;-83
2022/08/18 14:31:33;;;;;;;13.07;9.88;;;;;;;;;;5038617;28;20037;-82
2022/08/18 14:33:59;;;;;;;11.82;8.02;;;;;;;;;;5044121;28;20044;-83
2022/08/18 14:36:24;;;;;;;11.35;9.20;;;;;;;;;;5039066;28;20075;-82
2022/08/18 14:38:50;;;;;;;10.48;8.00;;;;;;;;;;5046151;28;20442;-82
2022/08/18 14:41:16;;;;;;;12.70;8.38;;;;;;;;;;5054647;28;20075;-82
2022/08/18 14:43:44;;;;;;;12.32;8.02;;;;;;;;;;5049466;28;20043;-82
2022/08/18 14:46:12;;;;;;;9.18;7.65;;;;;;;;;;5062291;28;20042;-82
2022/08/18 14:48:37;;;;;;;10.15;7.95;;;;;;;;;;5037955;28;20036;-82
2022/08/18 14:51:03;;;;;;;10.82;8.02;;;;;;;;;;5046871;28;20060;-83
2022/08/18 14:53:33;;;;;;;10.30;8.07;;;;;;;;;;5055216;28;20087;-83
2022/08/18 14:55:58;;;;;;;11.70;8.43;;;;;;;;;;5044469;28;20037;-82
2022/08/18 14:58:29;;;;;;;11.68;9.05;;;;;;;;;;5046387;28;20426;-84
2022/08/18 15:01:01;;;;;;;9.65;7.53;;;;;;;;;;5036815;28;20732;-84
2022/08/18 15:03:29;;;;;;;8.75;7.07;;;;;;;;;;5045483;28;20024;-82
2022/08/18 15:05:55;;;;;;;11.50;8.02;;;;;;;;;;5039471;28;20071;-83
2022/08/18 15:08:21;;;;;;;8.63;6.75;;;;;;;;;;5035349;28;20183;-83
2022/08/18 15:10:47;;;;;;;10.55;7.57;;;;;;;;;;5040990;28;20033;-84